createdAt,value
2022-10-19T00:02:22.754Z,72.20
2022-10-19T00:04:49.387Z,72.03
2022-10-19T00:07:16.004Z,72.41
2022-10-19T00:09:45.472Z,72.66
2022-10-19T00:12:12.914Z,72.30
2022-10-19T00:14:39.502Z,72.64
2022-10-19T00:17:06.058Z,72.78
2022-10-19T00:19:32.650Z,72.62
2022-10-19T00:21:59.284Z,72.66
2022-10-19T00:24:25.906Z,73.08
2022-10-19T00:26:52.493Z,72.96
2022-10-19T00:29:19.267Z,72.80
2022-10-19T00:31:45.957Z,72.31
2022-10-19T00:34:12.600Z,72.52
2022-10-19T00:36:40.646Z,72.49
2022-10-19T00:39:11.334Z,72.65
2022-10-19T00:41:38.210Z,72.60
2022-10-19T00:44:30.148Z,72.93
2022-10-19T00:47:04.923Z,73.48
2022-10-19T00:49:35.841Z,73.82
2022-10-19T00:52:06.142Z,73.99
2022-10-19T00:54:34.166Z,73.83
2022-10-19T00:57:00.955Z,73.76
2022-10-19T00:59:31.638Z,73.92
2022-10-19T01:01:59.364Z,73.92
2022-10-19T01:04:27.064Z,73.29
2022-10-19T01:06:54.789Z,73.13
2022-10-19T01:09:21.394Z,72.83
2022-10-19T01:12:00.541Z,72.59
2022-10-19T01:14:39.120Z,72.68
2022-10-19T01:17:39.650Z,72.33
2022-10-19T01:20:24.636Z,72.65
2022-10-19T01:23:15.989Z,72.91
2022-10-19T01:26:10.279Z,73.30
2022-10-19T01:28:55.287Z,72.90
2022-10-19T01:31:31.895Z,72.96
2022-10-19T01:34:20.692Z,73.03
2022-10-19T01:37:01.271Z,72.73
2022-10-19T01:39:53.072Z,73.09
2022-10-19T01:42:37.489Z,73.09
2022-10-19T01:45:18.924Z,73.05
2022-10-19T01:47:53.138Z,72.90
2022-10-19T01:50:24.753Z,73.05
2022-10-19T01:52:53.999Z,73.29
2022-10-19T01:55:22.173Z,73.55
2022-10-19T01:57:59.370Z,73.08
2022-10-19T02:00:27.471Z,73.25
2022-10-19T02:02:55.410Z,72.99
2022-10-19T02:05:27.596Z,73.08
2022-10-19T02:08:02.467Z,73.14
2022-10-19T02:10:32.485Z,72.75
2022-10-19T02:13:00.731Z,72.49
2022-10-19T02:15:30.934Z,72.79
2022-10-19T02:18:01.428Z,72.49
2022-10-19T02:20:28.632Z,72.84
2022-10-19T02:22:55.482Z,72.63
2022-10-19T02:25:23.249Z,71.63
2022-10-19T02:27:52.302Z,71.84
2022-10-19T02:30:20.414Z,71.39
2022-10-19T02:32:47.490Z,71.47
2022-10-19T02:35:14.772Z,70.88
2022-10-19T02:37:41.932Z,71.45
2022-10-19T02:40:09.548Z,71.27
2022-10-19T02:42:41.939Z,71.53
2022-10-19T02:45:11.284Z,71.50
2022-10-19T02:47:44.936Z,71.83
2022-10-19T02:50:13.504Z,71.63
2022-10-19T02:52:40.892Z,71.72
2022-10-19T02:55:08.757Z,72.00
2022-10-19T02:57:36.041Z,72.39
2022-10-19T03:00:08.799Z,72.00
2022-10-19T03:02:35.684Z,72.32
2022-10-19T03:05:03.029Z,72.56
2022-10-19T03:07:29.748Z,72.42
2022-10-19T03:09:56.307Z,72.63
2022-10-19T03:12:23.173Z,72.32
2022-10-19T03:14:49.773Z,72.48
2022-10-19T03:17:16.319Z,72.43
2022-10-19T03:19:42.894Z,72.68
2022-10-19T03:22:09.442Z,72.67
2022-10-19T03:24:36.028Z,72.62
2022-10-19T03:27:02.641Z,72.82
2022-10-19T03:29:29.153Z,72.92
2022-10-19T03:31:55.764Z,72.92
2022-10-19T03:34:22.397Z,73.07
2022-10-19T03:36:48.944Z,73.19
2022-10-19T03:39:17.217Z,73.38
2022-10-19T03:41:43.991Z,73.39
2022-10-19T03:44:11.419Z,73.66
2022-10-19T03:46:38.931Z,73.30
2022-10-19T03:49:05.974Z,73.11
2022-10-19T03:51:33.573Z,72.99
2022-10-19T03:54:05.323Z,72.68
2022-10-19T03:56:33.401Z,72.57
2022-10-19T03:59:01.201Z,72.95
2022-10-19T04:01:40.257Z,72.56
2022-10-19T04:04:12.826Z,72.49
2022-10-19T04:06:41.703Z,72.28
2022-10-19T04:09:11.358Z,72.93
2022-10-19T04:11:37.825Z,72.75
2022-10-19T04:14:04.749Z,72.84
2022-10-19T04:16:32.699Z,72.72
2022-10-19T04:19:00.233Z,72.68
2022-10-19T04:21:28.209Z,72.93
2022-10-19T04:24:02.673Z,73.26
2022-10-19T04:26:29.826Z,73.54
2022-10-19T04:29:00.847Z,73.34
2022-10-19T04:31:28.493Z,73.18
2022-10-19T04:33:55.634Z,73.39
2022-10-19T04:36:23.640Z,73.77
2022-10-19T04:38:50.245Z,73.63
2022-10-19T04:41:19.195Z,73.50
2022-10-19T04:43:46.953Z,73.91
2022-10-19T04:46:20.526Z,74.03
2022-10-19T04:48:49.348Z,74.07
2022-10-19T04:51:17.055Z,74.42
2022-10-19T04:53:44.533Z,74.06
2022-10-19T04:56:17.237Z,74.12
2022-10-19T04:58:44.281Z,73.91
2022-10-19T05:01:17.030Z,74.14
2022-10-19T05:03:44.101Z,74.16
2022-10-19T05:06:12.253Z,74.17
2022-10-19T05:08:39.614Z,73.75
2022-10-19T05:11:09.857Z,74.11
2022-10-19T05:13:36.835Z,73.88
2022-10-19T05:16:05.722Z,74.21
2022-10-19T05:18:32.932Z,74.08
2022-10-19T05:21:11.578Z,74.55
2022-10-19T05:23:39.476Z,74.55
2022-10-19T05:26:15.429Z,74.76
2022-10-19T05:28:42.150Z,74.73
2022-10-19T05:31:11.683Z,74.52
2022-10-19T05:33:38.920Z,74.51
2022-10-19T05:36:16.353Z,74.50
2022-10-19T05:38:44.482Z,74.76
2022-10-19T05:41:11.374Z,74.77
2022-10-19T05:43:37.983Z,74.77
2022-10-19T05:46:13.152Z,75.20
2022-10-19T05:48:40.763Z,75.52
2022-10-19T05:51:10.140Z,75.71
2022-10-19T05:56:08.148Z,75.54
2022-10-19T05:58:36.075Z,75.69
2022-10-19T06:01:02.688Z,75.62
2022-10-19T06:03:29.750Z,75.56
2022-10-19T06:05:56.404Z,75.54
2022-10-19T06:08:24.278Z,75.24
2022-10-19T06:10:51.400Z,74.55
2022-10-19T06:13:19.812Z,74.66
2022-10-19T06:15:50.544Z,74.63
2022-10-19T06:18:17.072Z,74.67
2022-10-19T06:20:43.623Z,74.11
2022-10-19T06:23:10.169Z,73.54
2022-10-19T06:25:36.738Z,73.45
2022-10-19T06:28:04.038Z,73.08
2022-10-19T06:30:30.598Z,72.78
2022-10-19T06:32:58.775Z,72.84
2022-10-19T06:35:25.512Z,72.73
2022-10-19T06:37:52.055Z,73.15
2022-10-19T06:40:18.589Z,72.53
2022-10-19T06:42:45.304Z,72.19
2022-10-19T06:45:11.894Z,72.14
2022-10-19T06:47:38.712Z,72.42
2022-10-19T06:50:06.614Z,72.12
2022-10-19T06:52:34.628Z,71.74
2022-10-19T06:55:02.133Z,71.88
2022-10-19T06:57:28.757Z,72.10
2022-10-19T06:59:55.566Z,71.55
2022-10-19T07:02:22.164Z,71.68
2022-10-19T07:04:48.730Z,71.20
2022-10-19T07:07:15.396Z,70.99
2022-10-19T07:09:41.989Z,70.35
2022-10-19T07:12:10.837Z,70.27
2022-10-19T07:14:39.675Z,69.90
2022-10-19T07:17:07.557Z,69.75
2022-10-19T07:19:34.923Z,69.28
2022-10-19T07:22:01.923Z,69.22
2022-10-19T07:24:28.538Z,69.20
2022-10-19T07:26:55.842Z,68.72
2022-10-19T07:29:22.717Z,68.45
2022-10-19T07:31:49.310Z,68.50
2022-10-19T07:34:16.470Z,68.68
2022-10-19T07:36:46.101Z,68.52
2022-10-19T07:39:13.178Z,68.54
2022-10-19T07:41:39.893Z,68.45
2022-10-19T07:44:08.200Z,68.92
2022-10-19T07:46:39.355Z,68.59
2022-10-19T07:49:12.731Z,68.01
2022-10-19T07:51:40.058Z,67.25
2022-10-19T07:54:06.960Z,66.47
2022-10-19T07:56:36.512Z,66.52
2022-10-19T07:59:04.908Z,66.23
2022-10-19T08:01:34.136Z,65.92
2022-10-19T08:06:47.910Z,65.53
2022-10-19T08:09:33.503Z,64.59
2022-10-19T08:12:02.132Z,64.26
2022-10-19T08:14:28.760Z,64.90
2022-10-19T08:16:55.330Z,64.72
2022-10-19T08:19:22.923Z,65.09
2022-10-19T08:21:50.331Z,65.52
2022-10-19T08:24:19.384Z,65.49
2022-10-19T08:26:46.612Z,65.41
2022-10-19T08:29:15.711Z,65.66
2022-10-19T08:31:44.318Z,65.20
2022-10-19T08:34:11.958Z,64.89
2022-10-19T08:36:39.160Z,65.02
2022-10-19T08:39:07.684Z,64.94
2022-10-19T08:41:40.176Z,64.83
2022-10-19T08:44:22.179Z,65.13
2022-10-19T08:47:23.221Z,64.43
2022-10-19T08:49:50.560Z,64.61
2022-10-19T08:52:24.641Z,63.72
2022-10-19T08:54:53.696Z,63.11
2022-10-19T08:57:38.962Z,63.26
2022-10-19T09:00:21.146Z,62.84
2022-10-19T09:03:04.156Z,62.70
2022-10-19T09:05:54.953Z,62.28
2022-10-19T09:08:21.751Z,61.64
2022-10-19T09:10:51.745Z,62.72
2022-10-19T09:14:04.079Z,62.25
2022-10-19T09:16:31.709Z,62.19
2022-10-19T09:18:58.506Z,62.23
2022-10-19T09:21:45.944Z,61.31
2022-10-19T09:24:26.215Z,61.29
2022-10-19T09:26:56.228Z,61.95
2022-10-19T09:29:41.903Z,62.67
2022-10-19T09:32:18.216Z,62.85
2022-10-19T09:34:49.891Z,62.07
2022-10-19T09:37:23.476Z,61.33
2022-10-19T09:39:54.870Z,59.63
2022-10-19T09:42:33.099Z,58.67
2022-10-19T09:45:16.399Z,58.52
2022-10-19T09:47:47.800Z,59.85
2022-10-19T09:50:17.630Z,58.98
2022-10-19T09:52:46.776Z,58.40
2022-10-19T09:55:13.316Z,58.25
2022-10-19T09:57:51.004Z,57.87
2022-10-19T10:00:21.108Z,58.29
2022-10-19T10:02:53.095Z,58.83
2022-10-19T10:05:29.561Z,58.42
2022-10-19T10:07:56.294Z,57.07
2022-10-19T10:10:42.707Z,54.38
2022-10-19T10:13:17.923Z,55.66
2022-10-19T10:15:49.315Z,54.63
2022-10-19T10:18:19.014Z,53.00
2022-10-19T10:21:11.236Z,51.26
2022-10-19T10:23:38.247Z,51.10
2022-10-19T10:26:15.332Z,50.63
2022-10-19T10:28:50.634Z,50.27
2022-10-19T10:31:26.355Z,49.57
2022-10-19T10:34:10.829Z,50.43
2022-10-19T10:36:51.256Z,51.30
2022-10-19T10:39:18.137Z,51.09
2022-10-19T10:41:47.870Z,51.20
2022-10-19T10:44:20.332Z,51.63
2022-10-19T10:46:57.579Z,50.61
2022-10-19T10:49:26.565Z,49.21
2022-10-19T10:51:57.378Z,49.50
2022-10-19T10:54:31.305Z,48.51
2022-10-19T11:00:28.971Z,31.87
2022-10-19T11:03:02.049Z,27.61
2022-10-19T11:05:33.668Z,26.62
2022-10-19T11:08:12.925Z,23.74
2022-10-19T11:10:46.580Z,23.29
2022-10-19T11:13:16.859Z,23.59
2022-10-19T11:16:05.008Z,24.39
2022-10-19T11:18:37.812Z,24.39
2022-10-19T11:21:11.422Z,26.14
2022-10-19T11:23:41.034Z,30.29
2022-10-19T11:26:23.751Z,33.05
2022-10-19T11:28:56.446Z,35.12
2022-10-19T11:31:34.694Z,32.36
2022-10-19T11:34:04.119Z,35.37
2022-10-19T11:36:45.823Z,37.01
2022-10-19T11:39:39.873Z,38.62
2022-10-19T11:42:12.387Z,37.46
2022-10-19T11:44:57.373Z,38.65
2022-10-19T11:48:00.011Z,39.25
2022-10-19T11:51:04.172Z,41.27
2022-10-19T11:53:56.510Z,42.70
2022-10-19T11:56:44.715Z,43.30
2022-10-19T11:59:32.079Z,44.28
2022-10-19T12:02:18.663Z,44.14
2022-10-19T12:04:51.388Z,44.46
2022-10-19T12:07:43.102Z,45.44
2022-10-19T12:10:25.246Z,45.44
2022-10-19T12:13:04.688Z,45.97
2022-10-19T12:16:01.643Z,45.83
2022-10-19T12:18:40.498Z,45.17
2022-10-19T12:21:35.652Z,46.49
2022-10-19T12:24:06.659Z,46.13
2022-10-19T12:26:36.781Z,46.46
2022-10-19T12:29:10.275Z,45.98
2022-10-19T12:31:37.223Z,46.69
2022-10-19T12:34:22.892Z,46.84
2022-10-19T12:36:49.429Z,46.87
2022-10-19T12:39:26.481Z,47.07
2022-10-19T12:41:58.927Z,47.49
2022-10-19T12:44:57.776Z,46.93
2022-10-19T12:47:26.010Z,47.45
2022-10-19T12:49:55.077Z,47.43
2022-10-19T12:52:53.008Z,47.21
2022-10-19T12:55:27.634Z,46.69
2022-10-19T12:58:20.783Z,47.42
2022-10-19T13:01:03.603Z,47.51
2022-10-19T13:03:34.669Z,48.32
2022-10-19T13:06:09.105Z,48.44
2022-10-19T13:08:43.485Z,49.50
2022-10-19T13:11:15.327Z,49.45
2022-10-19T13:14:03.563Z,50.18
2022-10-19T13:16:30.168Z,50.75
2022-10-19T13:19:20.594Z,50.87
2022-10-19T13:21:51.742Z,50.51
2022-10-19T13:24:24.388Z,51.01
2022-10-19T13:27:03.179Z,50.02
2022-10-19T13:29:40.336Z,49.98
2022-10-19T13:32:44.796Z,49.12
2022-10-19T13:35:25.558Z,48.77
2022-10-19T13:38:16.921Z,49.88
2022-10-19T13:40:49.673Z,49.41
2022-10-19T13:43:22.956Z,50.15
2022-10-19T13:46:10.496Z,50.78
2022-10-19T13:48:59.047Z,50.17
2022-10-19T13:51:44.324Z,50.98
2022-10-19T13:54:35.837Z,50.67
2022-10-19T13:57:11.625Z,51.37
2022-10-19T13:59:56.846Z,51.22
2022-10-19T14:02:45.998Z,51.54
2022-10-19T14:05:25.785Z,51.38
2022-10-19T14:08:14.048Z,51.54
2022-10-19T14:11:00.089Z,51.34
2022-10-19T14:13:28.422Z,51.02
2022-10-19T14:15:57.263Z,51.15
2022-10-19T14:18:29.171Z,51.60
2022-10-19T14:21:02.049Z,51.25
2022-10-19T14:23:31.350Z,51.41
2022-10-19T14:26:12.144Z,51.66
2022-10-19T14:28:40.531Z,51.80
2022-10-19T14:31:09.939Z,51.74
2022-10-19T14:33:40.447Z,51.78
2022-10-19T14:36:14.167Z,52.02
2022-10-19T14:38:45.813Z,52.49
2022-10-19T14:41:36.994Z,51.69
2022-10-19T14:44:30.210Z,51.83
2022-10-19T14:46:56.906Z,52.81
2022-10-19T14:49:23.566Z,52.10
2022-10-19T14:52:01.748Z,52.61
2022-10-19T14:54:40.446Z,52.10
2022-10-19T14:57:11.841Z,51.95
2022-10-19T14:59:47.220Z,52.18
2022-10-19T15:02:27.967Z,51.97
2022-10-19T15:04:58.579Z,52.31
2022-10-19T15:07:29.645Z,52.95
2022-10-19T15:10:01.179Z,52.89
2022-10-19T15:12:46.574Z,53.30
2022-10-19T15:15:19.319Z,53.88
2022-10-19T15:17:56.706Z,54.47
2022-10-19T15:20:28.893Z,54.58
2022-10-19T15:22:57.781Z,54.93
2022-10-19T15:25:24.691Z,54.77
2022-10-19T15:27:53.578Z,54.94
2022-10-19T15:30:31.453Z,55.50
2022-10-19T15:33:13.364Z,55.72
2022-10-19T15:35:43.947Z,55.71
2022-10-19T15:38:14.536Z,56.21
2022-10-19T15:40:43.820Z,56.21
2022-10-19T15:43:35.274Z,56.59
2022-10-19T15:46:09.071Z,56.88
2022-10-19T15:48:41.667Z,57.57
2022-10-19T15:51:23.295Z,57.66
2022-10-19T15:53:58.363Z,57.68
2022-10-19T15:56:27.623Z,57.66
2022-10-19T15:58:59.249Z,58.00
2022-10-19T16:01:28.477Z,58.44
2022-10-19T16:03:58.519Z,58.62
2022-10-19T16:06:28.712Z,58.79
2022-10-19T16:08:55.894Z,58.86
2022-10-19T16:11:23.296Z,58.88
2022-10-19T16:13:50.197Z,59.29
2022-10-19T16:16:29.498Z,59.52
2022-10-19T16:18:56.704Z,59.98
2022-10-19T16:21:30.167Z,60.33
2022-10-19T16:23:57.107Z,60.42
2022-10-19T16:26:25.992Z,60.82
2022-10-19T16:28:54.187Z,60.87
2022-10-19T16:31:22.029Z,60.74
2022-10-19T16:33:48.675Z,60.61
2022-10-19T16:36:15.477Z,61.15
2022-10-19T16:38:42.167Z,61.48
2022-10-19T16:41:10.349Z,61.08
2022-10-19T16:43:37.459Z,61.63
2022-10-19T16:46:05.064Z,62.13
2022-10-19T16:48:32.436Z,62.15
2022-10-19T16:51:10.289Z,62.45
2022-10-19T16:53:38.399Z,62.33
2022-10-19T16:56:07.794Z,62.72
2022-10-19T16:58:34.927Z,62.71
2022-10-19T17:01:10.090Z,63.00
2022-10-19T17:03:36.940Z,63.07
2022-10-19T17:06:06.130Z,63.28
2022-10-19T17:08:37.074Z,63.97
2022-10-19T17:11:21.413Z,63.63
2022-10-19T17:13:50.601Z,63.70
2022-10-19T17:16:19.547Z,63.85
2022-10-19T17:18:47.177Z,64.08
2022-10-19T17:21:17.235Z,63.84
2022-10-19T17:23:44.654Z,63.82
2022-10-19T17:26:12.348Z,64.19
2022-10-19T17:28:40.224Z,64.16
2022-10-19T17:31:10.550Z,64.08
2022-10-19T17:33:39.010Z,64.57
2022-10-19T17:36:18.903Z,64.86
2022-10-19T17:38:47.595Z,64.90
2022-10-19T17:41:17.767Z,64.70
2022-10-19T17:43:47.014Z,64.89
2022-10-19T17:46:16.949Z,65.19
2022-10-19T17:48:45.162Z,65.21
2022-10-19T17:51:20.620Z,65.56
2022-10-19T17:53:48.744Z,65.85
2022-10-19T17:56:18.801Z,66.06
2022-10-19T17:58:46.153Z,65.91
2022-10-19T18:01:14.080Z,66.05
2022-10-19T18:03:41.548Z,65.65
2022-10-19T18:06:17.427Z,65.86
2022-10-19T18:08:47.139Z,66.14
2022-10-19T18:11:19.457Z,66.09
2022-10-19T18:13:46.870Z,65.99
2022-10-19T18:16:17.350Z,65.65
2022-10-19T18:18:48.484Z,65.80
2022-10-19T18:21:21.152Z,66.14
2022-10-19T18:23:48.324Z,66.25
2022-10-19T18:26:19.812Z,66.23
2022-10-19T18:28:46.683Z,66.30
2022-10-19T18:31:19.805Z,65.78
2022-10-19T18:33:47.548Z,66.10
2022-10-19T18:36:14.341Z,66.17
2022-10-19T18:38:42.078Z,66.46
2022-10-19T18:43:39.448Z,65.92
2022-10-19T18:46:07.258Z,66.38
2022-10-19T18:48:35.537Z,66.52
2022-10-19T18:51:07.191Z,66.28
2022-10-19T18:53:34.555Z,66.55
2022-10-19T18:56:04.058Z,66.35
2022-10-19T18:58:31.065Z,66.41
2022-10-19T19:01:09.864Z,66.31
2022-10-19T19:03:38.342Z,66.19
2022-10-19T19:06:07.910Z,65.98
2022-10-19T19:08:34.663Z,66.39
2022-10-19T19:11:21.423Z,66.36
2022-10-19T19:13:55.210Z,66.29
2022-10-19T19:16:23.150Z,66.03
2022-10-19T19:18:49.993Z,65.96
2022-10-19T19:21:22.366Z,66.35
2022-10-19T19:23:50.647Z,66.10
2022-10-19T19:26:18.061Z,65.72
2022-10-19T19:28:47.713Z,66.08
2022-10-19T19:31:18.123Z,65.68
2022-10-19T19:33:46.102Z,65.76
2022-10-19T19:36:14.605Z,65.52
2022-10-19T19:38:41.847Z,65.78
2022-10-19T19:41:10.936Z,65.78
2022-10-19T19:43:38.244Z,65.91
2022-10-19T19:46:09.474Z,65.74
2022-10-19T19:48:37.208Z,65.84
2022-10-19T19:51:04.572Z,66.09
2022-10-19T19:53:31.654Z,66.23
2022-10-19T19:55:58.264Z,65.97
2022-10-19T19:58:24.838Z,66.15
2022-10-19T20:00:51.380Z,66.41
2022-10-19T20:03:18.119Z,66.59
2022-10-19T20:05:44.794Z,66.94
2022-10-19T20:08:11.546Z,66.39
2022-10-19T20:10:42.464Z,66.36
2022-10-19T20:13:09.272Z,66.73
2022-10-19T20:15:39.470Z,66.35
2022-10-19T20:18:06.696Z,66.48
2022-10-19T20:20:33.421Z,67.01
2022-10-19T20:22:59.971Z,67.12
2022-10-19T20:25:26.765Z,66.94
2022-10-19T20:27:53.492Z,67.12
2022-10-19T20:30:20.747Z,66.87
2022-10-19T20:32:47.447Z,66.96
2022-10-19T20:35:14.118Z,67.00
2022-10-19T20:37:40.760Z,67.25
2022-10-19T20:40:08.897Z,67.08
2022-10-19T20:42:36.424Z,66.64
2022-10-19T20:45:03.897Z,67.13
2022-10-19T20:47:30.656Z,67.32
2022-10-19T20:49:57.426Z,67.30
2022-10-19T20:52:24.143Z,67.35
2022-10-19T20:54:50.733Z,67.36
2022-10-19T20:57:17.464Z,67.29
2022-10-19T20:59:45.676Z,67.35
2022-10-19T21:02:12.359Z,67.09
2022-10-19T21:04:39.028Z,67.37
2022-10-19T21:07:05.636Z,67.66
2022-10-19T21:09:32.423Z,67.59
2022-10-19T21:12:01.084Z,67.43
2022-10-19T21:14:29.833Z,67.66
2022-10-19T21:16:58.108Z,67.31
2022-10-19T21:19:29.007Z,67.28
2022-10-19T21:22:03.632Z,67.52
2022-10-19T21:24:33.496Z,67.25
2022-10-19T21:27:01.587Z,67.81
2022-10-19T21:29:28.414Z,67.86
2022-10-19T21:31:55.068Z,67.30
2022-10-19T21:34:24.191Z,67.65
2022-10-19T21:36:51.059Z,67.36
2022-10-19T21:39:18.236Z,67.43
2022-10-19T21:41:45.207Z,67.59
2022-10-19T21:44:12.458Z,67.14
2022-10-19T21:46:39.170Z,67.64
2022-10-19T21:49:05.920Z,67.38
2022-10-19T21:51:46.617Z,67.28
2022-10-19T21:54:16.052Z,67.55
2022-10-19T21:56:43.971Z,67.61
2022-10-19T21:59:12.119Z,67.60
2022-10-19T22:01:41.272Z,67.42
2022-10-19T22:04:17.081Z,67.75
2022-10-19T22:06:43.782Z,67.73
2022-10-19T22:09:18.317Z,67.73
2022-10-19T22:11:46.036Z,67.61
2022-10-19T22:14:15.525Z,67.14
2022-10-19T22:16:42.636Z,67.46
2022-10-19T22:19:10.010Z,67.53
2022-10-19T22:24:12.474Z,67.72
2022-10-19T22:26:42.871Z,67.80
2022-10-19T22:29:09.581Z,67.81
2022-10-19T22:31:37.339Z,67.66
2022-10-19T22:34:06.629Z,67.81
2022-10-19T22:36:33.295Z,67.79
2022-10-19T22:38:59.933Z,67.91
2022-10-19T22:41:26.527Z,68.09
2022-10-19T22:43:53.147Z,68.02
2022-10-19T22:46:19.777Z,68.39
2022-10-19T22:48:46.441Z,68.29
2022-10-19T22:51:13.098Z,67.97
2022-10-19T22:53:39.737Z,68.16
2022-10-19T22:56:06.809Z,67.79
2022-10-19T22:58:33.428Z,68.05
2022-10-19T23:01:01.892Z,67.92
2022-10-19T23:03:28.574Z,67.77
2022-10-19T23:05:55.198Z,67.77
2022-10-19T23:08:21.794Z,67.99
2022-10-19T23:10:48.471Z,68.15
2022-10-19T23:13:15.193Z,68.08
2022-10-19T23:15:43.933Z,67.71
2022-10-19T23:18:11.167Z,68.11
2022-10-19T23:20:37.722Z,67.94
2022-10-19T23:23:05.407Z,67.96
2022-10-19T23:28:03.565Z,68.30
2022-10-19T23:30:30.180Z,68.12
2022-10-19T23:32:56.712Z,68.04
2022-10-19T23:35:23.330Z,67.85
2022-10-19T23:37:49.879Z,68.58
2022-10-19T23:40:16.465Z,68.68
2022-10-19T23:42:43.042Z,68.63
2022-10-19T23:45:10.104Z,68.50
2022-10-19T23:47:37.028Z,68.06
2022-10-19T23:50:03.919Z,68.41
2022-10-19T23:52:30.512Z,68.17
2022-10-19T23:54:57.171Z,68.11
2022-10-19T23:57:23.687Z,68.34
2022-10-19T23:59:50.310Z,68.42
